Hillsborough, New South Wales

7:43 PM AEST on July 28, 2015 (GMT +1000)
South West Charlestown | | Change Station
CLOSE
Current Station
Personal Weather Station
Location: Charlestown, NSW
Elevation: 256 ft
Nearby Weather Stations

Elev 256 ft 32.97 °S, 151.68 °E | Updated 7 days ago

Clear
Clear
50 °F
Feels Like 50 °F
N
6
Wind Variable Wind from SSW
Gusts mph

Today
High -- | Low -- °F
--% Chance of Precip.
Yesterday
High -- | Low -- °F
Precip. -- in
6:47 AM 5:12 PM
Waxing Gibbous, 88% visible
Pressure 30.48 in
Visibility -9999.0 miles
Clouds
Dew Point 43 °F
Humidity 76%
Rainfall in
Snow Depth Not available.
UV 0.0 out of 12
Pollen Not available.
Air Quality Not available.
Flu Activity Not available.
METAR YWLM 280930Z 29004KT CAVOK 08/04 Q1032 RMK USE TAF FOR ARRIVALS AFTER 1130Z

More Conditions Fewer Conditions

Pressure 30.48 in
Visibility -9999.0 miles
Clouds
Dew Point 43 °F
Humidity 76%
Rainfall in
Snow Depth Not available.
UV 0.0 out of 12
Pollen Not available.
Air Quality Not available.
Flu Activity Not available.
METAR YWLM 280930Z 29004KT CAVOK 08/04 Q1032 RMK USE TAF FOR ARRIVALS AFTER 1130Z

More Conditions Fewer Conditions

10-Day Weather Forecast

×

Almanac

Astronomy

Jul. 28, 2015 Rise Set
Actual Time
Civil Twilight
Nautical Twilight
Astronomical Twilight
Moon
Length of Visible Light
Length of Day
Tomorrow will be .
, % of the Moon is Illuminated

Today's Extremes

Country Highs Country Lows

Community

WunderPhotos

Upload Photos

1,841,800 photos uploaded!

WunderBlogs® & News

Nearby

Air Quality

  Air Quality AQ Index Pollutant
Not available.

Snow Depth

Station Depth Elevation

Earthquake Activity

City Distance Mag. Time & Date
Minimum magnitude displayed is 2.5.

Coastal Water Temperatures

Place Temperature

Stations

Nearby Weather Stations

Station Location Temp. Windchill Dew Point Humidity Wind Precip. Elev Updated Type